Pickton, Texas
Current Conditions -  °F | °C
As of 3:35 AM on Sunday 26 Oct 2014 (Local Time) from KSLR Reporting Station
Clear Clear  
Wind Chill: 66°   Ceiling: Unl
Heat Index: 66°   Visibility: 10mi
Dew Point: 61°   Wind: 6mph
Humidity: 84%   Direction: 210°SSW
Pressure: 30.04"   Gusts: NA
Location:  33.03°N, 95.39°W
Report Text: KSLR 260835Z AUTO 21005KT 10SM CLR 19/16 A3004 RMK AO2 T01880160
Loading
Personal Weather Stations






























Interactive Weather Map
Tropical Storm Tracking
New forecast layout! Learn more

10-Day Weather Forecast

Advertisements
Track Severe Weather on mobile